sensor_id;sensor_type;location;lat;lon;timestamp;P1;durP1;ratioP1;P2;durP2;ratioP2
40453;SDS011;26160;51.858;4.398;2023-07-29T00:01:48;5.18;;;2.28;;
40453;SDS011;26160;51.858;4.398;2023-07-29T00:04:15;3.92;;;2.25;;
40453;SDS011;26160;51.858;4.398;2023-07-29T00:06:41;4.43;;;2.00;;
40453;SDS011;26160;51.858;4.398;2023-07-29T00:09:07;3.33;;;2.10;;
40453;SDS011;26160;51.858;4.398;2023-07-29T00:11:33;6.50;;;3.08;;
40453;SDS011;26160;51.858;4.398;2023-07-29T00:14:01;5.47;;;2.88;;
40453;SDS011;26160;51.858;4.398;2023-07-29T00:16:27;4.95;;;2.58;;
40453;SDS011;26160;51.858;4.398;2023-07-29T00:18:53;4.43;;;2.50;;
40453;SDS011;26160;51.858;4.398;2023-07-29T00:21:20;8.15;;;3.13;;
40453;SDS011;26160;51.858;4.398;2023-07-29T00:23:46;7.85;;;2.83;;
40453;SDS011;26160;51.858;4.398;2023-07-29T00:26:12;8.02;;;3.25;;
40453;SDS011;26160;51.858;4.398;2023-07-29T00:28:38;9.18;;;3.95;;
40453;SDS011;26160;51.858;4.398;2023-07-29T00:31:04;6.97;;;3.42;;
40453;SDS011;26160;51.858;4.398;2023-07-29T00:33:30;6.75;;;3.75;;
40453;SDS011;26160;51.858;4.398;2023-07-29T00:35:56;9.27;;;4.07;;
40453;SDS011;26160;51.858;4.398;2023-07-29T00:38:27;10.05;;;4.15;;
40453;SDS011;26160;51.858;4.398;2023-07-29T00:40:53;8.13;;;3.85;;
40453;SDS011;26160;51.858;4.398;2023-07-29T00:43:20;9.18;;;3.25;;
40453;SDS011;26160;51.858;4.398;2023-07-29T00:45:46;5.32;;;3.05;;
40453;SDS011;26160;51.858;4.398;2023-07-29T00:48:13;5.00;;;2.80;;
40453;SDS011;26160;51.858;4.398;2023-07-29T00:50:39;4.95;;;2.65;;
40453;SDS011;26160;51.858;4.398;2023-07-29T00:53:06;5.80;;;2.42;;
40453;SDS011;26160;51.858;4.398;2023-07-29T00:55:32;3.08;;;2.30;;
40453;SDS011;26160;51.858;4.398;2023-07-29T00:57:59;4.72;;;2.15;;
40453;SDS011;26160;51.858;4.398;2023-07-29T01:03:09;2.97;;;2.05;;
40453;SDS011;26160;51.858;4.398;2023-07-29T01:05:50;5.18;;;2.03;;
40453;SDS011;26160;51.858;4.398;2023-07-29T01:08:21;5.38;;;2.17;;
40453;SDS011;26160;51.858;4.398;2023-07-29T01:11:36;3.25;;;2.45;;
40453;SDS011;26160;51.858;4.398;2023-07-29T01:16:45;3.38;;;2.17;;
40453;SDS011;26160;51.858;4.398;2023-07-29T01:19:26;3.03;;;2.33;;
40453;SDS011;26160;51.858;4.398;2023-07-29T01:22:17;4.60;;;2.30;;
40453;SDS011;26160;51.858;4.398;2023-07-29T01:24:45;3.30;;;2.22;;
40453;SDS011;26160;51.858;4.398;2023-07-29T01:27:12;2.88;;;2.33;;
40453;SDS011;26160;51.858;4.398;2023-07-29T01:29:38;5.40;;;2.15;;
40453;SDS011;26160;51.858;4.398;2023-07-29T01:32:06;2.90;;;2.25;;
40453;SDS011;26160;51.858;4.398;2023-07-29T01:35:10;2.50;;;2.22;;
40453;SDS011;26160;51.858;4.398;2023-07-29T01:37:49;4.47;;;2.55;;
40453;SDS011;26160;51.858;4.398;2023-07-29T01:40:19;6.32;;;2.30;;
40453;SDS011;26160;51.858;4.398;2023-07-29T01:42:47;3.50;;;2.15;;
40453;SDS011;26160;51.858;4.398;2023-07-29T01:45:14;3.85;;;2.60;;
40453;SDS011;26160;51.858;4.398;2023-07-29T01:47:40;5.63;;;2.47;;
40453;SDS011;26160;51.858;4.398;2023-07-29T01:50:07;4.00;;;2.80;;
40453;SDS011;26160;51.858;4.398;2023-07-29T01:52:34;6.80;;;2.40;;
40453;SDS011;26160;51.858;4.398;2023-07-29T01:55:01;6.75;;;2.75;;
40453;SDS011;26160;51.858;4.398;2023-07-29T01:57:28;5.95;;;2.38;;
40453;SDS011;26160;51.858;4.398;2023-07-29T01:59:54;5.22;;;2.35;;
40453;SDS011;26160;51.858;4.398;2023-07-29T02:02:20;4.72;;;2.40;;
40453;SDS011;26160;51.858;4.398;2023-07-29T02:04:46;4.93;;;2.28;;
40453;SDS011;26160;51.858;4.398;2023-07-29T02:07:17;4.43;;;2.47;;
40453;SDS011;26160;51.858;4.398;2023-07-29T02:09:44;5.72;;;2.40;;
40453;SDS011;26160;51.858;4.398;2023-07-29T02:12:10;4.88;;;2.30;;
40453;SDS011;26160;51.858;4.398;2023-07-29T02:14:36;2.45;;;2.03;;
40453;SDS011;26160;51.858;4.398;2023-07-29T02:17:03;5.70;;;2.83;;
40453;SDS011;26160;51.858;4.398;2023-07-29T02:19:29;4.63;;;2.60;;
40453;SDS011;26160;51.858;4.398;2023-07-29T02:21:55;3.75;;;2.25;;
40453;SDS011;26160;51.858;4.398;2023-07-29T02:24:21;5.82;;;2.67;;
40453;SDS011;26160;51.858;4.398;2023-07-29T02:26:47;3.50;;;2.08;;
40453;SDS011;26160;51.858;4.398;2023-07-29T02:29:13;6.95;;;2.70;;
40453;SDS011;26160;51.858;4.398;2023-07-29T02:31:39;4.07;;;2.17;;
40453;SDS011;26160;51.858;4.398;2023-07-29T02:34:05;3.53;;;2.28;;
40453;SDS011;26160;51.858;4.398;2023-07-29T02:36:31;4.72;;;2.65;;
40453;SDS011;26160;51.858;4.398;2023-07-29T02:38:58;2.63;;;2.25;;
40453;SDS011;26160;51.858;4.398;2023-07-29T02:41:24;6.70;;;2.78;;
40453;SDS011;26160;51.858;4.398;2023-07-29T02:43:50;4.95;;;2.58;;
40453;SDS011;26160;51.858;4.398;2023-07-29T02:46:16;3.80;;;2.50;;
40453;SDS011;26160;51.858;4.398;2023-07-29T02:48:43;3.58;;;2.60;;
40453;SDS011;26160;51.858;4.398;2023-07-29T02:51:10;4.25;;;2.80;;
40453;SDS011;26160;51.858;4.398;2023-07-29T02:53:36;4.07;;;2.50;;
40453;SDS011;26160;51.858;4.398;2023-07-29T02:56:03;3.22;;;2.78;;
40453;SDS011;26160;51.858;4.398;2023-07-29T02:58:29;3.30;;;2.50;;
40453;SDS011;26160;51.858;4.398;2023-07-29T03:01:02;4.78;;;3.10;;
40453;SDS011;26160;51.858;4.398;2023-07-29T03:03:29;3.38;;;2.60;;
40453;SDS011;26160;51.858;4.398;2023-07-29T03:06:00;5.22;;;3.00;;
40453;SDS011;26160;51.858;4.398;2023-07-29T03:08:27;5.45;;;3.05;;
40453;SDS011;26160;51.858;4.398;2023-07-29T03:10:54;4.57;;;2.85;;
40453;SDS011;26160;51.858;4.398;2023-07-29T03:13:21;6.50;;;3.22;;
40453;SDS011;26160;51.858;4.398;2023-07-29T03:15:47;5.35;;;3.03;;
40453;SDS011;26160;51.858;4.398;2023-07-29T03:18:14;5.80;;;3.20;;
40453;SDS011;26160;51.858;4.398;2023-07-29T03:20:41;7.07;;;3.33;;
40453;SDS011;26160;51.858;4.398;2023-07-29T03:23:07;5.78;;;2.85;;
40453;SDS011;26160;51.858;4.398;2023-07-29T03:25:33;4.55;;;2.95;;
40453;SDS011;26160;51.858;4.398;2023-07-29T03:27:59;6.88;;;3.70;;
40453;SDS011;26160;51.858;4.398;2023-07-29T03:30:25;6.55;;;3.13;;
40453;SDS011;26160;51.858;4.398;2023-07-29T03:32:52;7.85;;;4.20;;
40453;SDS011;26160;51.858;4.398;2023-07-29T03:35:18;5.93;;;3.40;;
40453;SDS011;26160;51.858;4.398;2023-07-29T03:37:44;5.97;;;3.33;;
40453;SDS011;26160;51.858;4.398;2023-07-29T03:40:11;5.75;;;4.03;;
40453;SDS011;26160;51.858;4.398;2023-07-29T03:42:37;7.43;;;3.30;;
40453;SDS011;26160;51.858;4.398;2023-07-29T03:45:03;6.70;;;3.60;;
40453;SDS011;26160;51.858;4.398;2023-07-29T03:47:30;7.43;;;4.05;;
40453;SDS011;26160;51.858;4.398;2023-07-29T03:49:56;7.22;;;3.63;;
40453;SDS011;26160;51.858;4.398;2023-07-29T03:52:22;8.27;;;4.28;;
40453;SDS011;26160;51.858;4.398;2023-07-29T03:54:48;7.20;;;3.80;;
40453;SDS011;26160;51.858;4.398;2023-07-29T03:57:14;8.77;;;4.28;;
40453;SDS011;26160;51.858;4.398;2023-07-29T03:59:40;7.32;;;3.72;;
40453;SDS011;26160;51.858;4.398;2023-07-29T04:02:06;10.55;;;4.57;;
40453;SDS011;26160;51.858;4.398;2023-07-29T04:04:33;8.90;;;4.40;;
40453;SDS011;26160;51.858;4.398;2023-07-29T04:06:59;10.05;;;4.68;;
40453;SDS011;26160;51.858;4.398;2023-07-29T04:09:25;8.65;;;4.45;;
40453;SDS011;26160;51.858;4.398;2023-07-29T04:11:51;5.72;;;4.63;;
40453;SDS011;26160;51.858;4.398;2023-07-29T04:14:17;6.63;;;4.60;;
40453;SDS011;26160;51.858;4.398;2023-07-29T04:16:44;8.38;;;5.10;;
40453;SDS011;26160;51.858;4.398;2023-07-29T04:19:11;6.63;;;4.78;;
40453;SDS011;26160;51.858;4.398;2023-07-29T04:21:38;8.00;;;4.93;;
40453;SDS011;26160;51.858;4.398;2023-07-29T04:24:04;8.95;;;5.35;;
40453;SDS011;26160;51.858;4.398;2023-07-29T04:26:30;8.23;;;4.80;;
40453;SDS011;26160;51.858;4.398;2023-07-29T04:28:56;9.07;;;5.55;;
40453;SDS011;26160;51.858;4.398;2023-07-29T04:31:23;7.88;;;4.93;;
40453;SDS011;26160;51.858;4.398;2023-07-29T04:33:50;8.70;;;5.40;;
40453;SDS011;26160;51.858;4.398;2023-07-29T04:36:16;8.90;;;4.60;;
40453;SDS011;26160;51.858;4.398;2023-07-29T04:38:42;11.95;;;5.78;;
40453;SDS011;26160;51.858;4.398;2023-07-29T04:41:09;9.27;;;5.68;;
40453;SDS011;26160;51.858;4.398;2023-07-29T04:43:36;8.98;;;5.22;;
40453;SDS011;26160;51.858;4.398;2023-07-29T04:46:05;13.98;;;6.40;;
40453;SDS011;26160;51.858;4.398;2023-07-29T04:48:33;7.88;;;5.07;;
40453;SDS011;26160;51.858;4.398;2023-07-29T04:50:59;12.10;;;5.82;;
40453;SDS011;26160;51.858;4.398;2023-07-29T04:53:25;12.00;;;5.80;;
40453;SDS011;26160;51.858;4.398;2023-07-29T04:55:51;9.18;;;5.50;;
40453;SDS011;26160;51.858;4.398;2023-07-29T04:58:17;12.95;;;5.88;;
40453;SDS011;26160;51.858;4.398;2023-07-29T05:00:43;11.35;;;5.72;;
40453;SDS011;26160;51.858;4.398;2023-07-29T05:03:11;9.38;;;6.10;;
40453;SDS011;26160;51.858;4.398;2023-07-29T05:05:37;11.38;;;5.57;;
40453;SDS011;26160;51.858;4.398;2023-07-29T05:08:03;8.43;;;5.40;;
40453;SDS011;26160;51.858;4.398;2023-07-29T05:10:29;8.10;;;4.90;;
40453;SDS011;26160;51.858;4.398;2023-07-29T05:12:56;8.60;;;5.07;;
40453;SDS011;26160;51.858;4.398;2023-07-29T05:15:22;10.20;;;5.30;;
40453;SDS011;26160;51.858;4.398;2023-07-29T05:17:48;6.90;;;4.57;;
40453;SDS011;26160;51.858;4.398;2023-07-29T05:20:14;8.65;;;5.20;;
40453;SDS011;26160;51.858;4.398;2023-07-29T05:22:40;8.45;;;5.65;;
40453;SDS011;26160;51.858;4.398;2023-07-29T05:25:06;8.00;;;5.47;;
40453;SDS011;26160;51.858;4.398;2023-07-29T05:27:33;9.43;;;4.90;;
40453;SDS011;26160;51.858;4.398;2023-07-29T05:29:59;7.57;;;5.07;;
40453;SDS011;26160;51.858;4.398;2023-07-29T05:32:25;9.18;;;4.28;;
40453;SDS011;26160;51.858;4.398;2023-07-29T05:34:51;7.30;;;4.72;;
40453;SDS011;26160;51.858;4.398;2023-07-29T05:37:17;10.45;;;5.45;;
40453;SDS011;26160;51.858;4.398;2023-07-29T05:39:43;11.45;;;4.82;;
40453;SDS011;26160;51.858;4.398;2023-07-29T05:42:09;9.07;;;4.75;;
40453;SDS011;26160;51.858;4.398;2023-07-29T05:44:35;7.60;;;4.13;;
40453;SDS011;26160;51.858;4.398;2023-07-29T05:47:01;12.18;;;4.78;;
40453;SDS011;26160;51.858;4.398;2023-07-29T05:49:28;8.85;;;4.60;;
40453;SDS011;26160;51.858;4.398;2023-07-29T05:51:54;9.73;;;4.30;;
40453;SDS011;26160;51.858;4.398;2023-07-29T05:54:20;8.77;;;4.38;;
40453;SDS011;26160;51.858;4.398;2023-07-29T05:56:46;7.85;;;4.13;;
40453;SDS011;26160;51.858;4.398;2023-07-29T05:59:12;7.90;;;4.60;;
40453;SDS011;26160;51.858;4.398;2023-07-29T06:01:39;7.28;;;4.03;;
40453;SDS011;26160;51.858;4.398;2023-07-29T06:04:05;9.18;;;5.00;;
40453;SDS011;26160;51.858;4.398;2023-07-29T06:06:31;7.55;;;3.90;;
40453;SDS011;26160;51.858;4.398;2023-07-29T06:08:57;8.18;;;4.03;;
40453;SDS011;26160;51.858;4.398;2023-07-29T06:11:24;6.50;;;4.32;;
40453;SDS011;26160;51.858;4.398;2023-07-29T06:13:50;6.13;;;3.83;;
40453;SDS011;26160;51.858;4.398;2023-07-29T06:16:16;9.15;;;4.18;;
40453;SDS011;26160;51.858;4.398;2023-07-29T06:18:42;5.82;;;3.80;;
40453;SDS011;26160;51.858;4.398;2023-07-29T06:21:08;6.82;;;3.72;;
40453;SDS011;26160;51.858;4.398;2023-07-29T06:23:37;4.63;;;3.00;;
40453;SDS011;26160;51.858;4.398;2023-07-29T06:26:04;8.10;;;4.03;;
40453;SDS011;26160;51.858;4.398;2023-07-29T06:28:31;6.03;;;3.13;;
40453;SDS011;26160;51.858;4.398;2023-07-29T06:30:57;5.75;;;3.40;;
40453;SDS011;26160;51.858;4.398;2023-07-29T06:33:23;5.38;;;3.10;;
40453;SDS011;26160;51.858;4.398;2023-07-29T06:35:49;6.70;;;2.95;;
40453;SDS011;26160;51.858;4.398;2023-07-29T06:38:16;6.80;;;3.30;;
40453;SDS011;26160;51.858;4.398;2023-07-29T06:40:47;6.82;;;3.65;;
40453;SDS011;26160;51.858;4.398;2023-07-29T06:43:14;4.30;;;2.95;;
40453;SDS011;26160;51.858;4.398;2023-07-29T06:45:40;7.97;;;3.15;;
40453;SDS011;26160;51.858;4.398;2023-07-29T06:48:06;6.20;;;3.20;;
40453;SDS011;26160;51.858;4.398;2023-07-29T06:50:32;4.47;;;2.47;;
40453;SDS011;26160;51.858;4.398;2023-07-29T06:52:58;7.32;;;3.05;;
40453;SDS011;26160;51.858;4.398;2023-07-29T06:55:24;8.88;;;3.70;;
40453;SDS011;26160;51.858;4.398;2023-07-29T06:57:51;5.78;;;2.90;;
40453;SDS011;26160;51.858;4.398;2023-07-29T07:00:17;4.78;;;3.00;;
40453;SDS011;26160;51.858;4.398;2023-07-29T07:02:43;4.60;;;2.92;;
40453;SDS011;26160;51.858;4.398;2023-07-29T07:05:09;7.80;;;3.25;;
40453;SDS011;26160;51.858;4.398;2023-07-29T07:07:36;3.97;;;2.70;;
40453;SDS011;26160;51.858;4.398;2023-07-29T07:10:03;4.10;;;2.42;;
40453;SDS011;26160;51.858;4.398;2023-07-29T07:12:29;8.55;;;3.40;;
40453;SDS011;26160;51.858;4.398;2023-07-29T07:14:56;6.15;;;2.47;;
40453;SDS011;26160;51.858;4.398;2023-07-29T07:17:22;4.28;;;2.88;;
40453;SDS011;26160;51.858;4.398;2023-07-29T07:19:48;6.75;;;3.38;;
40453;SDS011;26160;51.858;4.398;2023-07-29T07:22:15;7.40;;;3.17;;
40453;SDS011;26160;51.858;4.398;2023-07-29T07:24:41;7.72;;;3.53;;
40453;SDS011;26160;51.858;4.398;2023-07-29T07:27:07;5.65;;;2.90;;
40453;SDS011;26160;51.858;4.398;2023-07-29T07:29:34;5.68;;;3.42;;
40453;SDS011;26160;51.858;4.398;2023-07-29T07:32:00;6.65;;;3.33;;
40453;SDS011;26160;51.858;4.398;2023-07-29T07:34:26;5.18;;;3.30;;
40453;SDS011;26160;51.858;4.398;2023-07-29T07:36:52;6.60;;;3.50;;
40453;SDS011;26160;51.858;4.398;2023-07-29T07:39:18;6.85;;;3.25;;
40453;SDS011;26160;51.858;4.398;2023-07-29T07:41:44;4.32;;;2.90;;
40453;SDS011;26160;51.858;4.398;2023-07-29T07:44:10;4.65;;;3.00;;
40453;SDS011;26160;51.858;4.398;2023-07-29T07:46:41;6.32;;;3.03;;
40453;SDS011;26160;51.858;4.398;2023-07-29T07:49:07;5.32;;;3.05;;
40453;SDS011;26160;51.858;4.398;2023-07-29T07:51:33;4.95;;;3.45;;
40453;SDS011;26160;51.858;4.398;2023-07-29T07:53:59;6.93;;;4.10;;
40453;SDS011;26160;51.858;4.398;2023-07-29T07:56:25;5.70;;;2.78;;
40453;SDS011;26160;51.858;4.398;2023-07-29T07:58:51;3.30;;;2.90;;
40453;SDS011;26160;51.858;4.398;2023-07-29T08:01:18;6.90;;;2.40;;
40453;SDS011;26160;51.858;4.398;2023-07-29T08:03:44;4.15;;;2.95;;
40453;SDS011;26160;51.858;4.398;2023-07-29T08:06:10;3.85;;;2.67;;
40453;SDS011;26160;51.858;4.398;2023-07-29T08:08:36;6.43;;;3.60;;
40453;SDS011;26160;51.858;4.398;2023-07-29T08:11:02;3.95;;;2.97;;
40453;SDS011;26160;51.858;4.398;2023-07-29T08:13:28;7.10;;;3.42;;
40453;SDS011;26160;51.858;4.398;2023-07-29T08:15:55;5.38;;;3.25;;
40453;SDS011;26160;51.858;4.398;2023-07-29T08:18:21;4.72;;;3.47;;
40453;SDS011;26160;51.858;4.398;2023-07-29T08:20:51;3.60;;;3.25;;
40453;SDS011;26160;51.858;4.398;2023-07-29T08:23:18;6.32;;;2.72;;
40453;SDS011;26160;51.858;4.398;2023-07-29T08:25:44;5.97;;;3.30;;
40453;SDS011;26160;51.858;4.398;2023-07-29T08:28:10;5.60;;;2.88;;
40453;SDS011;26160;51.858;4.398;2023-07-29T08:30:37;4.55;;;2.53;;
40453;SDS011;26160;51.858;4.398;2023-07-29T08:33:03;5.57;;;2.67;;
40453;SDS011;26160;51.858;4.398;2023-07-29T08:35:29;5.03;;;2.55;;
40453;SDS011;26160;51.858;4.398;2023-07-29T08:37:55;3.60;;;2.33;;
40453;SDS011;26160;51.858;4.398;2023-07-29T08:40:23;4.93;;;2.40;;
40453;SDS011;26160;51.858;4.398;2023-07-29T08:43:00;2.60;;;2.20;;
40453;SDS011;26160;51.858;4.398;2023-07-29T08:45:36;3.75;;;2.20;;
40453;SDS011;26160;51.858;4.398;2023-07-29T08:48:07;3.88;;;2.42;;
40453;SDS011;26160;51.858;4.398;2023-07-29T08:50:35;5.10;;;2.42;;
40453;SDS011;26160;51.858;4.398;2023-07-29T08:53:05;5.47;;;3.25;;
40453;SDS011;26160;51.858;4.398;2023-07-29T08:55:32;3.28;;;2.78;;
40453;SDS011;26160;51.858;4.398;2023-07-29T08:57:59;3.70;;;2.47;;
40453;SDS011;26160;51.858;4.398;2023-07-29T09:00:26;4.30;;;2.78;;
40453;SDS011;26160;51.858;4.398;2023-07-29T09:02:57;4.20;;;2.67;;
40453;SDS011;26160;51.858;4.398;2023-07-29T09:05:28;2.38;;;2.17;;
40453;SDS011;26160;51.858;4.398;2023-07-29T09:07:54;3.17;;;2.30;;
40453;SDS011;26160;51.858;4.398;2023-07-29T09:10:21;3.58;;;2.03;;
40453;SDS011;26160;51.858;4.398;2023-07-29T09:12:50;2.45;;;1.70;;
40453;SDS011;26160;51.858;4.398;2023-07-29T09:15:32;2.95;;;1.80;;
40453;SDS011;26160;51.858;4.398;2023-07-29T09:18:08;3.33;;;1.80;;
40453;SDS011;26160;51.858;4.398;2023-07-29T09:20:36;3.58;;;1.52;;
40453;SDS011;26160;51.858;4.398;2023-07-29T09:23:02;2.95;;;1.63;;
40453;SDS011;26160;51.858;4.398;2023-07-29T09:25:29;4.03;;;1.90;;
40453;SDS011;26160;51.858;4.398;2023-07-29T09:27:59;5.63;;;1.27;;
40453;SDS011;26160;51.858;4.398;2023-07-29T09:30:33;3.45;;;1.00;;
40453;SDS011;26160;51.858;4.398;2023-07-29T09:33:02;2.67;;;0.98;;
40453;SDS011;26160;51.858;4.398;2023-07-29T09:35:30;0.80;;;0.70;;
40453;SDS011;26160;51.858;4.398;2023-07-29T09:37:58;2.75;;;0.93;;
40453;SDS011;26160;51.858;4.398;2023-07-29T09:40:25;1.98;;;0.88;;
40453;SDS011;26160;51.858;4.398;2023-07-29T09:42:53;3.78;;;0.70;;
40453;SDS011;26160;51.858;4.398;2023-07-29T09:45:21;1.65;;;0.70;;
40453;SDS011;26160;51.858;4.398;2023-07-29T09:47:48;2.28;;;0.63;;
40453;SDS011;26160;51.858;4.398;2023-07-29T09:50:15;2.08;;;0.90;;
40453;SDS011;26160;51.858;4.398;2023-07-29T09:52:42;2.20;;;0.80;;
40453;SDS011;26160;51.858;4.398;2023-07-29T09:55:12;3.13;;;0.75;;
40453;SDS011;26160;51.858;4.398;2023-07-29T09:57:41;3.55;;;1.27;;
40453;SDS011;26160;51.858;4.398;2023-07-29T10:00:11;3.33;;;1.10;;
40453;SDS011;26160;51.858;4.398;2023-07-29T10:02:39;2.17;;;1.17;;
40453;SDS011;26160;51.858;4.398;2023-07-29T10:05:13;2.25;;;1.17;;
40453;SDS011;26160;51.858;4.398;2023-07-29T10:07:40;2.58;;;1.25;;
40453;SDS011;26160;51.858;4.398;2023-07-29T10:10:07;3.25;;;1.30;;
40453;SDS011;26160;51.858;4.398;2023-07-29T10:12:34;2.97;;;1.67;;
40453;SDS011;26160;51.858;4.398;2023-07-29T10:15:04;6.53;;;1.80;;
40453;SDS011;26160;51.858;4.398;2023-07-29T10:17:33;6.47;;;1.98;;
40453;SDS011;26160;51.858;4.398;2023-07-29T10:20:04;3.13;;;1.73;;
40453;SDS011;26160;51.858;4.398;2023-07-29T10:22:38;5.53;;;2.35;;
40453;SDS011;26160;51.858;4.398;2023-07-29T10:25:09;6.57;;;2.80;;
40453;SDS011;26160;51.858;4.398;2023-07-29T10:28:26;4.57;;;2.55;;
40453;SDS011;26160;51.858;4.398;2023-07-29T10:30:30;4.50;;;3.00;;
40453;SDS011;26160;51.858;4.398;2023-07-29T10:32:58;5.35;;;3.15;;
40453;SDS011;26160;51.858;4.398;2023-07-29T10:35:26;4.47;;;2.70;;
40453;SDS011;26160;51.858;4.398;2023-07-29T10:37:58;5.53;;;2.88;;
40453;SDS011;26160;51.858;4.398;2023-07-29T10:40:50;5.18;;;3.30;;
40453;SDS011;26160;51.858;4.398;2023-07-29T10:43:19;5.75;;;3.45;;
40453;SDS011;26160;51.858;4.398;2023-07-29T10:48:51;6.07;;;3.13;;
40453;SDS011;26160;51.858;4.398;2023-07-29T10:51:35;4.45;;;2.75;;
40453;SDS011;26160;51.858;4.398;2023-07-29T10:54:10;4.40;;;2.92;;
40453;SDS011;26160;51.858;4.398;2023-07-29T10:56:41;3.72;;;2.95;;
40453;SDS011;26160;51.858;4.398;2023-07-29T11:01:40;5.32;;;2.72;;
40453;SDS011;26160;51.858;4.398;2023-07-29T11:10:05;3.23;;;1.87;;
40453;SDS011;26160;51.858;4.398;2023-07-29T11:15:14;2.80;;;2.05;;
40453;SDS011;26160;51.858;4.398;2023-07-29T11:18:07;3.38;;;2.25;;
40453;SDS011;26160;51.858;4.398;2023-07-29T11:20:32;2.83;;;2.42;;
40453;SDS011;26160;51.858;4.398;2023-07-29T11:23:02;3.65;;;2.60;;
40453;SDS011;26160;51.858;4.398;2023-07-29T11:25:29;3.15;;;2.70;;
40453;SDS011;26160;51.858;4.398;2023-07-29T11:27:57;3.53;;;3.20;;
40453;SDS011;26160;51.858;4.398;2023-07-29T11:30:25;3.22;;;2.90;;
40453;SDS011;26160;51.858;4.398;2023-07-29T11:32:55;5.95;;;3.03;;
40453;SDS011;26160;51.858;4.398;2023-07-29T11:35:21;5.25;;;3.20;;
40453;SDS011;26160;51.858;4.398;2023-07-29T11:37:48;4.63;;;3.88;;
40453;SDS011;26160;51.858;4.398;2023-07-29T11:40:16;4.75;;;3.55;;
40453;SDS011;26160;51.858;4.398;2023-07-29T11:42:43;4.05;;;3.22;;
40453;SDS011;26160;51.858;4.398;2023-07-29T11:45:11;6.50;;;3.80;;
40453;SDS011;26160;51.858;4.398;2023-07-29T11:47:38;5.35;;;3.50;;
40453;SDS011;26160;51.858;4.398;2023-07-29T11:50:09;3.95;;;3.55;;
40453;SDS011;26160;51.858;4.398;2023-07-29T11:52:40;5.22;;;3.53;;
40453;SDS011;26160;51.858;4.398;2023-07-29T11:55:08;4.07;;;2.90;;
40453;SDS011;26160;51.858;4.398;2023-07-29T11:57:38;3.10;;;2.80;;
40453;SDS011;26160;51.858;4.398;2023-07-29T12:00:06;8.73;;;3.08;;
40453;SDS011;26160;51.858;4.398;2023-07-29T12:02:36;2.38;;;2.17;;
40453;SDS011;26160;51.858;4.398;2023-07-29T12:05:05;3.13;;;2.35;;
40453;SDS011;26160;51.858;4.398;2023-07-29T12:07:32;2.97;;;2.17;;
40453;SDS011;26160;51.858;4.398;2023-07-29T12:09:59;6.15;;;2.50;;
40453;SDS011;26160;51.858;4.398;2023-07-29T12:12:25;4.28;;;2.88;;
40453;SDS011;26160;51.858;4.398;2023-07-29T12:14:54;3.40;;;3.10;;
40453;SDS011;26160;51.858;4.398;2023-07-29T12:17:20;3.70;;;2.80;;
40453;SDS011;26160;51.858;4.398;2023-07-29T12:19:46;5.45;;;2.35;;
40453;SDS011;26160;51.858;4.398;2023-07-29T12:22:17;4.63;;;2.45;;
40453;SDS011;26160;51.858;4.398;2023-07-29T12:24:44;2.72;;;2.28;;
40453;SDS011;26160;51.858;4.398;2023-07-29T12:27:11;3.45;;;1.80;;
40453;SDS011;26160;51.858;4.398;2023-07-29T12:29:41;3.38;;;2.60;;
40453;SDS011;26160;51.858;4.398;2023-07-29T12:32:09;5.15;;;2.20;;
40453;SDS011;26160;51.858;4.398;2023-07-29T12:34:36;5.15;;;1.98;;
40453;SDS011;26160;51.858;4.398;2023-07-29T12:37:05;3.15;;;1.85;;
40453;SDS011;26160;51.858;4.398;2023-07-29T12:39:32;8.68;;;2.15;;
40453;SDS011;26160;51.858;4.398;2023-07-29T12:41:59;5.75;;;1.83;;
40453;SDS011;26160;51.858;4.398;2023-07-29T12:44:30;3.58;;;1.70;;
40453;SDS011;26160;51.858;4.398;2023-07-29T12:46:58;2.83;;;1.20;;
40453;SDS011;26160;51.858;4.398;2023-07-29T12:49:26;2.78;;;1.42;;
40453;SDS011;26160;51.858;4.398;2023-07-29T12:51:54;5.13;;;1.70;;
40453;SDS011;26160;51.858;4.398;2023-07-29T12:54:20;4.90;;;2.10;;
40453;SDS011;26160;51.858;4.398;2023-07-29T12:56:46;4.88;;;1.98;;
40453;SDS011;26160;51.858;4.398;2023-07-29T12:59:12;5.13;;;1.70;;
40453;SDS011;26160;51.858;4.398;2023-07-29T13:01:38;6.47;;;1.85;;
40453;SDS011;26160;51.858;4.398;2023-07-29T13:04:04;6.88;;;1.42;;
40453;SDS011;26160;51.858;4.398;2023-07-29T13:06:30;3.90;;;1.50;;
40453;SDS011;26160;51.858;4.398;2023-07-29T13:08:56;1.85;;;1.50;;
40453;SDS011;26160;51.858;4.398;2023-07-29T13:11:23;5.32;;;1.70;;
40453;SDS011;26160;51.858;4.398;2023-07-29T13:13:49;3.55;;;0.90;;
40453;SDS011;26160;51.858;4.398;2023-07-29T13:16:15;3.70;;;1.42;;
40453;SDS011;26160;51.858;4.398;2023-07-29T13:18:43;4.55;;;1.50;;
40453;SDS011;26160;51.858;4.398;2023-07-29T13:21:09;3.22;;;1.25;;
40453;SDS011;26160;51.858;4.398;2023-07-29T13:23:35;3.53;;;1.20;;
40453;SDS011;26160;51.858;4.398;2023-07-29T13:26:01;2.30;;;1.13;;
40453;SDS011;26160;51.858;4.398;2023-07-29T13:28:28;2.53;;;1.05;;
40453;SDS011;26160;51.858;4.398;2023-07-29T13:30:54;3.53;;;1.30;;
40453;SDS011;26160;51.858;4.398;2023-07-29T13:33:20;2.50;;;1.00;;
40453;SDS011;26160;51.858;4.398;2023-07-29T13:35:46;1.98;;;0.90;;
40453;SDS011;26160;51.858;4.398;2023-07-29T13:38:12;1.48;;;0.85;;
40453;SDS011;26160;51.858;4.398;2023-07-29T13:40:38;2.88;;;1.17;;
40453;SDS011;26160;51.858;4.398;2023-07-29T13:43:05;2.05;;;1.00;;
40453;SDS011;26160;51.858;4.398;2023-07-29T13:45:31;3.85;;;1.15;;
40453;SDS011;26160;51.858;4.398;2023-07-29T13:47:58;2.47;;;1.00;;
40453;SDS011;26160;51.858;4.398;2023-07-29T13:50:26;6.60;;;1.33;;
40453;SDS011;26160;51.858;4.398;2023-07-29T13:52:52;1.80;;;1.00;;
40453;SDS011;26160;51.858;4.398;2023-07-29T13:55:18;2.25;;;0.85;;
40453;SDS011;26160;51.858;4.398;2023-07-29T13:57:44;2.30;;;1.25;;
40453;SDS011;26160;51.858;4.398;2023-07-29T14:00:10;2.13;;;1.02;;
40453;SDS011;26160;51.858;4.398;2023-07-29T14:02:36;2.42;;;1.10;;
40453;SDS011;26160;51.858;4.398;2023-07-29T14:05:03;1.55;;;0.90;;
40453;SDS011;26160;51.858;4.398;2023-07-29T14:07:29;3.08;;;1.00;;
40453;SDS011;26160;51.858;4.398;2023-07-29T14:09:55;1.73;;;0.75;;
40453;SDS011;26160;51.858;4.398;2023-07-29T14:12:21;2.42;;;0.80;;
40453;SDS011;26160;51.858;4.398;2023-07-29T14:14:47;1.92;;;1.02;;
40453;SDS011;26160;51.858;4.398;2023-07-29T14:17:14;1.98;;;0.68;;
40453;SDS011;26160;51.858;4.398;2023-07-29T14:19:40;3.22;;;1.08;;
40453;SDS011;26160;51.858;4.398;2023-07-29T14:22:06;2.67;;;0.93;;
40453;SDS011;26160;51.858;4.398;2023-07-29T14:24:32;2.90;;;1.25;;
40453;SDS011;26160;51.858;4.398;2023-07-29T14:26:58;3.97;;;1.20;;
40453;SDS011;26160;51.858;4.398;2023-07-29T14:29:24;3.17;;;1.10;;
40453;SDS011;26160;51.858;4.398;2023-07-29T14:31:51;1.85;;;1.08;;
40453;SDS011;26160;51.858;4.398;2023-07-29T14:34:17;2.67;;;1.42;;
40453;SDS011;26160;51.858;4.398;2023-07-29T14:36:43;2.85;;;1.30;;
40453;SDS011;26160;51.858;4.398;2023-07-29T14:39:09;5.13;;;1.67;;
40453;SDS011;26160;51.858;4.398;2023-07-29T14:41:35;7.07;;;1.77;;
40453;SDS011;26160;51.858;4.398;2023-07-29T14:44:01;4.65;;;2.17;;
40453;SDS011;26160;51.858;4.398;2023-07-29T14:46:28;3.63;;;2.42;;
40453;SDS011;26160;51.858;4.398;2023-07-29T14:48:54;4.63;;;1.80;;
40453;SDS011;26160;51.858;4.398;2023-07-29T14:51:20;3.25;;;1.70;;
40453;SDS011;26160;51.858;4.398;2023-07-29T14:53:48;4.30;;;1.33;;
40453;SDS011;26160;51.858;4.398;2023-07-29T14:56:14;2.88;;;1.73;;
40453;SDS011;26160;51.858;4.398;2023-07-29T14:58:43;3.55;;;1.58;;
40453;SDS011;26160;51.858;4.398;2023-07-29T15:01:10;4.13;;;1.88;;
40453;SDS011;26160;51.858;4.398;2023-07-29T15:03:36;3.80;;;1.90;;
40453;SDS011;26160;51.858;4.398;2023-07-29T15:06:02;3.13;;;1.85;;
40453;SDS011;26160;51.858;4.398;2023-07-29T15:08:28;3.80;;;1.98;;
40453;SDS011;26160;51.858;4.398;2023-07-29T15:10:54;3.90;;;2.17;;